Time;durP1;ratioP1;P1;durP2;ratioP2;P2;SDS_P1;SDS_P2;PMS_P1;PMS_P2;Temp;Humidity;BMP_temperature;BMP_pressure;BME280_temperature;BME280_humidity;BME280_pressure;Samples;Min_cycle;Max_cycle;Signal;HPM_P1;HPM_P2
2022/01/26 00:07:54;;;;;;;24.50;11.80;;;6.10;99.90;;;;;;4901816;29;20828;-74
2022/01/26 00:10:20;;;;;;;28.23;14.37;;;6.10;99.90;;;;;;4903248;29;20446;-74
2022/01/26 00:12:54;;;;;;;26.80;13.10;;;6.00;99.90;;;;;;4905180;29;21220;-74
2022/01/26 00:15:20;;;;;;;27.13;14.10;;;6.00;99.90;;;;;;4903783;29;20483;-75
2022/01/26 00:17:46;;;;;;;25.23;12.97;;;6.00;99.90;;;;;;4909919;29;20563;-75
2022/01/26 00:41:05;;;;;;;22.17;11.07;;;5.90;99.90;;;;;;4905440;29;20473;-74
2022/01/26 00:43:31;;;;;;;22.50;10.90;;;5.90;99.90;;;;;;4906347;29;20838;-74
2022/01/26 00:45:58;;;;;;;20.30;11.27;;;5.90;99.90;;;;;;4908977;29;20478;-74
2022/01/26 00:48:31;;;;;;;23.83;12.13;;;5.90;99.90;;;;;;4910147;29;20477;-75
2022/01/26 00:51:00;;;;;;;20.90;10.97;;;5.90;99.90;;;;;;4904646;29;20568;-75
2022/01/26 00:53:32;;;;;;;20.37;10.80;;;5.90;99.90;;;;;;4908699;29;20534;-75
2022/01/26 00:55:59;;;;;;;17.07;9.57;;;5.90;99.90;;;;;;4906027;29;20462;-75
2022/01/26 00:58:24;;;;;;;16.80;9.10;;;5.90;99.90;;;;;;4904791;29;20476;-74
2022/01/26 01:00:51;;;;;;;17.37;9.70;;;5.90;99.90;;;;;;4904075;29;20480;-76
2022/01/26 01:03:21;;;;;;;15.60;9.70;;;5.90;99.90;;;;;;4904815;29;20384;-74
2022/01/26 01:08:18;;;;;;;19.03;9.20;;;5.90;99.90;;;;;;4904523;29;20559;-75
2022/01/26 01:10:46;;;;;;;19.40;10.23;;;6.00;99.90;;;;;;4904102;29;20480;-74
2022/01/26 01:13:17;;;;;;;18.43;10.47;;;5.90;99.90;;;;;;4917182;29;20449;-74
2022/01/26 01:15:44;;;;;;;18.90;10.07;;;5.90;99.90;;;;;;4902425;29;20449;-75
2022/01/26 01:24:01;;;;;;;20.23;10.40;;;5.90;99.90;;;;;;4906358;29;20969;-75
2022/01/26 01:34:20;;;;;;;19.13;11.07;;;5.90;99.90;;;;;;4905477;29;20508;-75
2022/01/26 01:36:49;;;;;;;24.10;11.20;;;5.90;99.90;;;;;;4902821;29;20828;-76
2022/01/26 01:39:15;;;;;;;20.47;11.43;;;5.90;99.90;;;;;;4908616;29;20891;-76
2022/01/26 01:41:42;;;;;;;24.20;11.70;;;5.80;99.90;;;;;;4904525;29;20476;-76
2022/01/26 01:44:09;;;;;;;22.10;11.57;;;5.80;99.90;;;;;;4905822;29;20444;-75
2022/01/26 01:46:36;;;;;;;23.00;11.63;;;5.80;99.90;;;;;;4910907;29;20449;-78
2022/01/26 01:49:04;;;;;;;24.87;11.37;;;5.70;99.90;;;;;;4924764;29;21091;-76
2022/01/26 01:51:34;;;;;;;22.87;10.80;;;5.80;99.90;;;;;;4910903;29;20992;-75
2022/01/26 01:54:00;;;;;;;19.33;10.57;;;5.70;99.90;;;;;;4913898;29;20505;-75
2022/01/26 01:56:26;;;;;;;18.70;10.63;;;5.80;99.90;;;;;;4909101;29;20785;-75
2022/01/26 01:58:59;;;;;;;25.00;12.73;;;5.80;99.90;;;;;;4908706;29;20229;-75
2022/01/26 02:01:27;;;;;;;19.40;11.20;;;5.80;99.90;;;;;;4908361;29;20470;-75
2022/01/26 02:03:55;;;;;;;20.67;9.90;;;5.80;99.90;;;;;;4906630;29;20445;-75
2022/01/26 02:06:23;;;;;;;20.10;10.80;;;5.70;99.90;;;;;;4904904;29;20452;-75
2022/01/26 02:08:49;;;;;;;20.63;12.07;;;5.80;99.90;;;;;;4908147;29;20521;-75
2022/01/26 02:11:17;;;;;;;23.00;12.53;;;5.70;99.90;;;;;;4906549;29;20501;-75
2022/01/26 02:52:29;;;;;;;18.73;10.47;;;5.80;99.90;;;;;;4891350;29;21101;-75
2022/01/26 03:00:28;;;;;;;22.03;13.17;;;5.70;99.90;;;;;;4903697;29;20451;-80
2022/01/26 03:03:09;;;;;;;28.13;13.00;;;5.70;99.90;;;;;;4907683;29;20807;-75
2022/01/26 03:05:39;;;;;;;26.10;12.40;;;5.80;99.90;;;;;;4903982;29;20444;-75
2022/01/26 03:08:07;;;;;;;26.57;12.63;;;5.60;99.90;;;;;;4905148;29;20587;-75
2022/01/26 03:10:45;;;;;;;22.57;11.93;;;5.70;99.90;;;;;;4903756;29;20469;-75
2022/01/26 03:13:17;;;;;;;26.17;12.07;;;5.60;99.90;;;;;;4919363;29;20457;-75
2022/01/26 03:15:48;;;;;;;23.43;13.10;;;5.60;99.90;;;;;;4905055;29;20449;-75
2022/01/26 03:20:53;;;;;;;24.73;12.80;;;5.60;99.90;;;;;;4906013;29;20475;-75
2022/01/26 03:29:12;;;;;;;23.70;12.67;;;5.70;99.90;;;;;;4910389;29;20491;-75
2022/01/26 03:34:18;;;;;;;23.00;13.07;;;5.70;99.90;;;;;;4909569;29;20531;-75
2022/01/26 03:36:57;;;;;;;25.10;13.30;;;5.70;99.90;;;;;;4909435;29;20465;-75
2022/01/26 03:39:25;;;;;;;24.30;13.23;;;5.70;99.90;;;;;;4910906;29;20468;-75
2022/01/26 03:42:05;;;;;;;24.83;13.13;;;5.70;99.90;;;;;;4905396;29;21039;-75
2022/01/26 03:44:33;;;;;;;27.47;13.47;;;5.70;99.90;;;;;;4907009;29;20441;-75
2022/01/26 03:47:06;;;;;;;27.17;12.90;;;5.70;99.90;;;;;;4905845;29;20454;-75
2022/01/26 03:49:34;;;;;;;26.50;14.50;;;5.70;99.90;;;;;;4908150;29;20460;-74
2022/01/26 03:51:59;;;;;;;26.50;14.60;;;5.60;99.90;;;;;;4907679;29;20486;-75
2022/01/26 03:54:25;;;;;;;25.43;13.20;;;5.60;99.90;;;;;;4912424;29;20458;-75
2022/01/26 03:56:53;;;;;;;28.03;14.03;;;5.60;99.90;;;;;;4907556;29;20199;-75
2022/01/26 03:59:18;;;;;;;32.17;14.23;;;5.60;99.90;;;;;;4906333;29;20281;-75
2022/01/26 04:01:44;;;;;;;27.37;14.13;;;5.60;99.90;;;;;;4909483;29;21285;-75
2022/01/26 04:04:12;;;;;;;28.40;13.70;;;5.60;99.90;;;;;;4906414;29;20261;-75
2022/01/26 04:06:43;;;;;;;26.20;13.67;;;5.60;99.90;;;;;;4920230;29;20207;-75
2022/01/26 04:09:11;;;;;;;27.23;14.50;;;5.60;99.90;;;;;;4905914;29;20496;-75
2022/01/26 04:11:44;;;;;;;27.77;15.00;;;5.60;99.90;;;;;;4904515;29;20508;-75
2022/01/26 04:14:13;;;;;;;23.07;12.43;;;5.60;99.90;;;;;;4909912;29;20505;-75
2022/01/26 04:16:42;;;;;;;25.97;14.37;;;5.60;99.90;;;;;;4910175;29;20457;-75
2022/01/26 04:19:08;;;;;;;25.50;13.53;;;5.60;99.90;;;;;;4904405;29;20523;-75
2022/01/26 04:22:21;;;;;;;26.57;14.23;;;5.60;99.90;;;;;;4905615;29;20473;-76
2022/01/26 04:24:32;;;;;;;28.80;13.80;;;5.60;99.90;;;;;;4901830;29;20459;-75
2022/01/26 04:27:44;;;;;;;31.80;15.00;;;5.70;99.90;;;;;;4903789;29;20523;-75
2022/01/26 04:29:50;;;;;;;30.33;13.87;;;5.70;99.90;;;;;;4901602;29;20497;-76
2022/01/26 04:32:16;;;;;;;27.40;14.07;;;5.70;99.90;;;;;;4910531;29;20469;-75
2022/01/26 04:34:43;;;;;;;26.77;13.33;;;5.70;99.90;;;;;;4905364;29;20483;-77
2022/01/26 04:39:47;;;;;;;21.47;12.67;;;5.60;99.90;;;;;;4909909;29;20628;-75
2022/01/26 04:42:18;;;;;;;31.67;13.53;;;5.60;99.90;;;;;;4904402;29;20465;-74
2022/01/26 04:44:51;;;;;;;24.00;12.63;;;5.50;99.90;;;;;;4908888;29;20461;-76
2022/01/26 04:47:17;;;;;;;28.47;13.87;;;5.60;99.90;;;;;;4907410;29;20445;-75
2022/01/26 04:49:43;;;;;;;23.83;12.97;;;5.50;99.90;;;;;;4904604;29;20460;-75
2022/01/26 04:52:10;;;;;;;27.00;13.37;;;5.50;99.90;;;;;;4910720;29;20255;-75
2022/01/26 04:54:36;;;;;;;24.40;12.47;;;5.50;99.90;;;;;;4904978;29;20299;-75
2022/01/26 04:57:02;;;;;;;24.77;13.03;;;5.50;99.90;;;;;;4905681;29;20576;-75
2022/01/26 04:59:27;;;;;;;26.20;13.27;;;5.50;99.90;;;;;;4905738;29;20197;-75
2022/01/26 05:01:53;;;;;;;28.77;13.13;;;5.60;99.90;;;;;;4906086;29;20233;-75
2022/01/26 05:04:18;;;;;;;29.70;14.00;;;5.50;99.90;;;;;;4911198;29;20212;-75
2022/01/26 05:06:44;;;;;;;24.40;12.83;;;5.60;99.90;;;;;;4902540;29;20221;-76
2022/01/26 05:09:19;;;;;;;23.20;12.77;;;5.50;99.90;;;;;;4911297;29;20264;-75
2022/01/26 05:11:50;;;;;;;22.07;12.17;;;5.60;99.90;;;;;;4910543;29;20220;-77
2022/01/26 05:14:15;;;;;;;26.63;12.90;;;5.60;99.90;;;;;;4904789;29;20450;-75
2022/01/26 05:16:44;;;;;;;24.87;12.60;;;5.50;99.90;;;;;;4907504;29;21615;-75
2022/01/26 05:19:10;;;;;;;23.20;12.17;;;5.30;99.90;;;;;;4904983;29;20236;-75
2022/01/26 05:21:38;;;;;;;27.87;12.60;;;5.30;99.90;;;;;;4925343;29;20477;-75
2022/01/26 05:24:04;;;;;;;26.90;12.80;;;5.40;99.90;;;;;;4921158;29;20196;-77
2022/01/26 05:26:29;;;;;;;24.97;12.30;;;5.30;99.90;;;;;;4920458;29;20449;-75
2022/01/26 05:28:55;;;;;;;21.27;11.20;;;5.30;99.90;;;;;;4910643;29;20468;-76
2022/01/26 05:31:21;;;;;;;22.53;12.20;;;5.30;99.90;;;;;;4910841;29;20226;-75
2022/01/26 05:33:50;;;;;;;22.73;11.03;;;5.30;99.90;;;;;;4922861;29;20457;-75
2022/01/26 05:36:15;;;;;;;21.87;11.20;;;5.30;99.90;;;;;;4908900;29;20708;-75
2022/01/26 05:38:41;;;;;;;24.13;11.90;;;5.30;99.90;;;;;;4903523;29;20484;-76
2022/01/26 05:41:09;;;;;;;21.57;11.67;;;5.30;99.90;;;;;;4901676;29;20225;-76
2022/01/26 05:43:35;;;;;;;20.37;10.70;;;5.30;99.90;;;;;;4906842;29;20611;-75
2022/01/26 05:46:20;;;;;;;27.27;11.70;;;5.40;99.90;;;;;;4904123;29;20454;-75
2022/01/26 05:48:46;;;;;;;25.60;12.03;;;5.30;99.90;;;;;;4910136;29;20490;-75
2022/01/26 05:51:16;;;;;;;24.50;12.30;;;5.30;99.90;;;;;;4904004;29;21029;-76
2022/01/26 05:53:42;;;;;;;27.43;12.47;;;5.30;99.90;;;;;;4904430;29;20487;-76
2022/01/26 05:56:10;;;;;;;23.53;11.83;;;5.30;99.90;;;;;;4908513;29;21041;-76
2022/01/26 05:58:36;;;;;;;25.30;12.20;;;5.40;99.90;;;;;;4904015;29;20852;-76
2022/01/26 06:01:04;;;;;;;26.90;13.03;;;5.40;99.90;;;;;;4903283;29;20491;-75
2022/01/26 06:03:30;;;;;;;23.67;12.07;;;5.30;99.90;;;;;;4899593;29;20542;-75
2022/01/26 06:05:56;;;;;;;25.00;12.10;;;5.30;99.90;;;;;;4906582;29;20455;-78
2022/01/26 06:08:23;;;;;;;26.30;13.40;;;5.20;99.90;;;;;;4890960;29;24063;-76
2022/01/26 06:10:50;;;;;;;25.27;13.27;;;5.20;99.90;;;;;;4895257;29;20839;-75
2022/01/26 06:13:16;;;;;;;23.30;12.70;;;5.20;99.90;;;;;;4895632;29;20507;-75
2022/01/26 06:15:43;;;;;;;23.20;11.97;;;5.20;99.90;;;;;;4892539;29;21052;-74
2022/01/26 06:18:08;;;;;;;25.80;12.40;;;5.30;99.90;;;;;;4893411;29;20489;-74
2022/01/26 06:20:34;;;;;;;24.70;11.90;;;5.30;99.90;;;;;;4892590;29;20479;-75
2022/01/26 06:23:01;;;;;;;23.20;12.10;;;5.30;99.90;;;;;;4887048;29;20243;-75
2022/01/26 06:25:28;;;;;;;23.87;12.43;;;5.30;99.90;;;;;;4894652;29;20194;-75
2022/01/26 06:27:55;;;;;;;24.47;12.73;;;5.30;99.90;;;;;;4881351;29;20476;-75
2022/01/26 06:30:22;;;;;;;24.80;13.43;;;5.30;99.90;;;;;;4888624;29;20481;-75
2022/01/26 06:32:48;;;;;;;25.23;12.30;;;5.30;99.90;;;;;;4898867;29;20465;-75
2022/01/26 06:35:14;;;;;;;22.63;11.70;;;5.30;99.90;;;;;;4891780;29;20457;-75
2022/01/26 06:37:39;;;;;;;26.20;11.67;;;5.30;99.90;;;;;;4895340;29;20980;-75
2022/01/26 06:40:06;;;;;;;26.20;13.30;;;5.40;99.90;;;;;;4906907;29;20225;-75
2022/01/26 06:42:38;;;;;;;25.10;12.67;;;5.40;99.90;;;;;;4897911;29;20207;-74
2022/01/26 06:45:50;;;;;;;26.83;14.07;;;5.40;99.90;;;;;;4899347;29;20983;-75
2022/01/26 06:48:01;;;;;;;23.43;12.37;;;5.40;99.90;;;;;;4889895;29;20525;-75
2022/01/26 06:50:27;;;;;;;23.63;12.80;;;5.50;99.90;;;;;;4893618;29;20966;-75
2022/01/26 06:52:53;;;;;;;28.30;13.60;;;5.40;99.90;;;;;;4896091;29;20464;-75
2022/01/26 06:55:19;;;;;;;24.90;13.13;;;5.50;99.90;;;;;;4892639;29;20200;-75
2022/01/26 06:57:46;;;;;;;25.33;12.53;;;5.50;99.90;;;;;;4901215;29;20256;-74
2022/01/26 07:00:13;;;;;;;26.30;12.93;;;5.50;99.90;;;;;;4896472;29;20848;-75
2022/01/26 07:02:39;;;;;;;23.97;12.07;;;5.30;99.90;;;;;;4891497;29;20456;-74
2022/01/26 07:05:09;;;;;;;24.93;12.57;;;5.40;99.90;;;;;;4888532;29;20453;-74
2022/01/26 07:07:35;;;;;;;27.43;12.73;;;5.40;99.90;;;;;;4900958;29;20629;-75
2022/01/26 07:10:01;;;;;;;21.27;11.73;;;5.40;99.90;;;;;;4901836;29;20516;-75
2022/01/26 07:12:27;;;;;;;21.63;11.63;;;5.40;99.90;;;;;;4904436;29;20210;-75
2022/01/26 07:23:01;;;;;;;21.77;12.03;;;5.40;99.90;;;;;;4903520;29;21026;-75
2022/01/26 07:25:27;;;;;;;21.90;12.27;;;5.30;99.90;;;;;;4897853;29;20456;-75
2022/01/26 07:27:53;;;;;;;25.30;11.73;;;5.30;99.90;;;;;;4905393;29;20204;-74
2022/01/26 07:30:18;;;;;;;22.77;11.97;;;5.40;99.90;;;;;;4904464;29;20658;-75
2022/01/26 07:32:44;;;;;;;20.83;11.17;;;5.30;99.90;;;;;;4902172;29;20192;-74
2022/01/26 07:35:10;;;;;;;20.50;11.17;;;5.40;99.90;;;;;;4901311;29;20193;-75
2022/01/26 07:37:36;;;;;;;22.67;11.73;;;5.40;99.90;;;;;;4909016;29;20583;-74
2022/01/26 07:40:06;;;;;;;24.40;13.20;;;5.30;99.90;;;;;;4904262;29;20221;-74
2022/01/26 07:42:33;;;;;;;24.67;12.43;;;5.30;99.90;;;;;;4900916;29;20876;-75
2022/01/26 07:44:59;;;;;;;27.80;13.37;;;5.30;99.90;;;;;;4920772;29;20485;-75
2022/01/26 07:47:24;;;;;;;26.30;12.70;;;5.30;99.90;;;;;;4904006;29;20481;-75
2022/01/26 07:49:54;;;;;;;25.73;12.80;;;5.30;99.90;;;;;;4905033;29;20997;-75
2022/01/26 07:52:20;;;;;;;24.47;11.73;;;5.30;99.90;;;;;;4902322;29;20220;-75
2022/01/26 07:54:48;;;;;;;21.30;12.07;;;5.30;99.90;;;;;;4905205;29;20457;-75
2022/01/26 07:57:14;;;;;;;24.07;13.40;;;5.40;99.90;;;;;;4904640;29;20209;-73
2022/01/26 07:59:39;;;;;;;22.40;12.47;;;5.40;99.90;;;;;;4904186;29;20593;-74
2022/01/26 08:02:05;;;;;;;27.97;13.43;;;5.30;99.90;;;;;;4903882;29;20219;-74
2022/01/26 08:04:30;;;;;;;28.07;13.20;;;5.30;99.90;;;;;;4903950;29;20189;-74
2022/01/26 08:06:56;;;;;;;23.67;13.50;;;5.30;99.90;;;;;;4905510;29;21149;-74
2022/01/26 08:09:21;;;;;;;25.67;13.13;;;5.30;99.90;;;;;;4901286;29;20260;-74
2022/01/26 08:11:47;;;;;;;23.27;12.00;;;5.20;99.90;;;;;;4902161;29;20267;-74
2022/01/26 08:14:12;;;;;;;28.00;14.03;;;5.20;99.90;;;;;;4904514;29;20193;-74
2022/01/26 08:16:39;;;;;;;23.27;11.93;;;5.20;99.90;;;;;;4917764;29;20224;-75
2022/01/26 08:19:08;;;;;;;25.07;13.07;;;5.20;99.90;;;;;;4904033;29;20225;-74
2022/01/26 08:21:33;;;;;;;23.70;12.67;;;5.30;99.90;;;;;;4900403;29;20479;-74
2022/01/26 08:24:03;;;;;;;25.93;13.20;;;5.30;99.90;;;;;;4901909;29;20461;-74
2022/01/26 08:26:42;;;;;;;27.47;14.33;;;5.30;99.90;;;;;;4899198;29;20733;-74
2022/01/26 08:29:14;;;;;;;24.30;14.10;;;5.20;99.90;;;;;;4916396;29;20529;-74
2022/01/26 08:31:40;;;;;;;24.23;12.43;;;5.20;99.90;;;;;;4900027;29;20477;-75
2022/01/26 08:34:06;;;;;;;28.57;13.97;;;5.10;99.90;;;;;;4901814;29;20820;-75
2022/01/26 08:36:31;;;;;;;28.10;14.17;;;5.10;99.90;;;;;;4902536;29;20197;-74
2022/01/26 08:38:57;;;;;;;28.20;13.40;;;5.10;99.90;;;;;;4902363;29;20253;-74
2022/01/26 08:41:25;;;;;;;24.53;12.33;;;5.10;99.90;;;;;;4899738;29;21226;-74
2022/01/26 08:43:50;;;;;;;27.17;13.17;;;5.00;99.90;;;;;;4899624;29;20215;-74
2022/01/26 08:46:18;;;;;;;32.30;13.83;;;5.00;99.90;;;;;;4907464;29;20476;-74
2022/01/26 08:48:43;;;;;;;25.83;12.93;;;5.00;99.90;;;;;;4901126;29;20256;-74
2022/01/26 08:51:09;;;;;;;25.57;13.23;;;5.10;99.90;;;;;;4908826;29;20516;-74
2022/01/26 08:53:35;;;;;;;24.93;12.50;;;5.10;99.90;;;;;;4906033;29;20192;-73
2022/01/26 08:56:00;;;;;;;23.97;13.87;;;5.10;99.90;;;;;;4905061;29;20544;-76
2022/01/26 08:58:26;;;;;;;29.20;13.90;;;5.20;99.90;;;;;;4902199;29;20603;-75
2022/01/26 09:00:52;;;;;;;25.10;13.60;;;5.10;99.90;;;;;;4902313;29;20220;-73
2022/01/26 09:03:18;;;;;;;32.93;15.53;;;5.10;99.90;;;;;;4903612;29;20190;-74
2022/01/26 09:05:43;;;;;;;28.77;14.87;;;5.10;99.90;;;;;;4904441;29;20449;-74
2022/01/26 09:08:09;;;;;;;23.67;13.40;;;5.10;99.90;;;;;;4899015;29;20232;-75
2022/01/26 09:10:39;;;;;;;28.20;13.63;;;5.10;99.90;;;;;;4903546;29;20237;-75
2022/01/26 09:13:04;;;;;;;32.30;16.07;;;5.10;99.90;;;;;;4902217;29;20576;-75
2022/01/26 09:15:31;;;;;;;33.03;14.47;;;5.10;99.90;;;;;;4903196;29;20460;-74
2022/01/26 09:18:03;;;;;;;29.90;13.63;;;5.10;99.90;;;;;;4903057;29;20225;-74
2022/01/26 09:20:29;;;;;;;30.83;14.63;;;5.10;99.90;;;;;;4901925;29;20481;-74
2022/01/26 09:22:55;;;;;;;29.20;14.33;;;5.10;99.90;;;;;;4902901;29;20453;-74
2022/01/26 09:25:21;;;;;;;30.10;15.00;;;5.10;99.90;;;;;;4905635;29;20501;-74
2022/01/26 09:27:46;;;;;;;28.90;15.17;;;5.10;99.90;;;;;;4903990;29;20228;-74
2022/01/26 09:30:12;;;;;;;34.03;15.43;;;5.10;99.90;;;;;;4902826;29;20186;-74
2022/01/26 09:32:38;;;;;;;29.00;15.40;;;5.10;99.90;;;;;;4901389;29;20664;-74
2022/01/26 09:35:10;;;;;;;32.43;15.30;;;5.10;99.90;;;;;;4907919;29;20455;-74
2022/01/26 09:37:38;;;;;;;30.03;14.83;;;5.10;99.90;;;;;;4898363;29;20225;-73
2022/01/26 09:40:05;;;;;;;32.67;16.17;;;5.00;99.90;;;;;;4901454;29;20446;-74
2022/01/26 09:42:32;;;;;;;30.63;15.63;;;5.10;99.90;;;;;;4917277;29;20566;-74
2022/01/26 09:45:00;;;;;;;28.90;15.40;;;5.10;99.90;;;;;;4905150;29;20460;-74
2022/01/26 09:47:28;;;;;;;31.97;15.67;;;5.10;99.90;;;;;;4901457;29;21448;-74
2022/01/26 09:49:57;;;;;;;30.07;15.30;;;5.10;99.90;;;;;;4900518;29;20476;-74
2022/01/26 09:52:32;;;;;;;30.17;15.57;;;5.10;99.90;;;;;;4897177;29;20499;-74
2022/01/26 09:55:03;;;;;;;29.30;14.83;;;5.10;99.90;;;;;;4900142;29;20448;-74
2022/01/26 09:57:29;;;;;;;28.77;13.33;;;5.10;99.90;;;;;;4906676;29;20500;-74
2022/01/26 09:59:55;;;;;;;29.50;14.90;;;5.20;99.90;;;;;;4915503;29;20476;-74
2022/01/26 10:02:24;;;;;;;32.03;16.40;;;5.10;99.90;;;;;;4916734;29;21010;-74
2022/01/26 10:04:55;;;;;;;30.73;15.73;;;5.00;99.90;;;;;;4901497;29;20949;-75
2022/01/26 10:10:30;;;;;;;29.07;15.50;;;5.10;99.90;;;;;;4912618;29;20457;-74
2022/01/26 10:15:54;;;;;;;27.53;14.67;;;5.00;99.90;;;;;;4916551;29;20497;-74
2022/01/26 10:18:21;;;;;;;28.73;15.40;;;5.00;99.90;;;;;;4914346;29;20481;-74
2022/01/26 10:20:52;;;;;;;33.67;16.00;;;5.00;99.90;;;;;;4910915;29;20464;-74
2022/01/26 10:23:23;;;;;;;31.50;16.27;;;5.00;99.90;;;;;;4906615;29;20740;-74
2022/01/26 10:26:07;;;;;;;32.07;16.17;;;5.00;99.90;;;;;;4921807;29;20456;-74
2022/01/26 10:28:53;;;;;;;27.07;15.30;;;5.00;99.90;;;;;;4904107;29;20517;-74
2022/01/26 10:31:27;;;;;;;33.70;17.80;;;5.10;99.90;;;;;;4905151;29;21047;-74
2022/01/26 10:34:00;;;;;;;30.53;15.23;;;5.00;99.90;;;;;;4905905;29;20792;-74
2022/01/26 10:36:35;;;;;;;32.87;16.00;;;5.00;99.90;;;;;;4904745;29;20468;-73
2022/01/26 10:39:25;;;;;;;32.03;15.30;;;5.00;99.90;;;;;;4906651;29;20484;-73
2022/01/26 10:41:53;;;;;;;28.30;14.57;;;4.90;99.90;;;;;;4904269;29;20600;-74
2022/01/26 10:44:33;;;;;;;29.80;14.97;;;4.90;99.90;;;;;;4906440;29;20977;-74
2022/01/26 10:47:05;;;;;;;31.47;14.50;;;4.90;99.90;;;;;;4900106;29;20452;-73
2022/01/26 10:52:30;;;;;;;33.30;15.40;;;4.80;99.90;;;;;;4901866;29;20469;-74
2022/01/26 10:54:58;;;;;;;32.63;15.67;;;4.80;99.90;;;;;;4902099;29;20458;-73
2022/01/26 10:57:25;;;;;;;27.50;15.20;;;4.90;99.90;;;;;;4902978;29;21527;-74
2022/01/26 10:59:52;;;;;;;31.23;14.30;;;4.90;99.90;;;;;;4902922;29;20453;-74
2022/01/26 11:02:24;;;;;;;29.90;14.60;;;5.00;99.90;;;;;;4901247;29;20520;-75
2022/01/26 11:04:49;;;;;;;32.77;14.47;;;4.90;99.90;;;;;;4903802;29;20457;-74
2022/01/26 11:07:16;;;;;;;31.03;15.10;;;4.90;99.90;;;;;;4901111;29;20457;-75
2022/01/26 11:09:46;;;;;;;29.17;14.00;;;4.80;99.90;;;;;;4905212;29;20203;-74
2022/01/26 11:12:14;;;;;;;30.50;13.97;;;4.90;99.90;;;;;;4904734;29;20474;-74
2022/01/26 11:14:42;;;;;;;33.70;15.73;;;4.80;99.90;;;;;;4907321;29;20467;-73
2022/01/26 11:17:09;;;;;;;30.33;13.97;;;4.80;99.90;;;;;;4905197;29;20444;-75
2022/01/26 11:19:44;;;;;;;30.50;13.90;;;4.80;99.90;;;;;;4907182;29;20476;-74
2022/01/26 11:22:11;;;;;;;27.33;13.40;;;4.80;99.90;;;;;;4903485;29;21101;-73
2022/01/26 11:24:45;;;;;;;32.73;15.67;;;4.80;99.90;;;;;;4903046;29;21727;-73
2022/01/26 11:27:11;;;;;;;33.17;15.70;;;4.70;99.90;;;;;;4900739;29;20449;-73
2022/01/26 11:29:42;;;;;;;31.60;14.20;;;4.70;99.90;;;;;;4903569;29;20813;-73
2022/01/26 11:32:36;;;;;;;74.23;27.47;;;4.70;99.90;;;;;;4902110;29;20476;-73
2022/01/26 11:35:08;;;;;;;31.00;15.00;;;4.80;99.90;;;;;;4915010;29;20814;-72
2022/01/26 11:45:35;;;;;;;32.97;13.80;;;4.80;99.90;;;;;;4899284;29;20455;-74
2022/01/26 11:48:11;;;;;;;33.20;14.63;;;4.80;99.90;;;;;;4919920;29;20520;-73
2022/01/26 11:50:44;;;;;;;30.53;14.77;;;4.80;99.90;;;;;;4904934;29;20485;-73
2022/01/26 11:53:15;;;;;;;38.47;16.50;;;4.80;99.90;;;;;;4903697;29;20977;-73
2022/01/26 11:55:48;;;;;;;34.97;14.40;;;4.80;99.90;;;;;;4905248;29;20447;-73
2022/01/26 11:58:32;;;;;;;37.17;15.00;;;4.80;99.90;;;;;;4901203;29;20519;-73
2022/01/26 12:03:47;;;;;;;40.70;16.20;;;4.90;99.90;;;;;;4901355;29;20536;-74
2022/01/26 12:06:20;;;;;;;32.00;15.67;;;4.90;99.90;;;;;;4900482;29;20500;-73
2022/01/26 12:08:47;;;;;;;39.13;16.30;;;4.90;99.90;;;;;;4903386;29;20481;-73
2022/01/26 12:11:18;;;;;;;32.10;17.77;;;4.80;99.90;;;;;;4904526;29;20497;-73
2022/01/26 12:13:45;;;;;;;28.00;14.40;;;4.90;99.90;;;;;;4905399;29;20455;-74
2022/01/26 12:16:19;;;;;;;33.93;15.20;;;4.80;99.90;;;;;;4902314;29;20536;-73
2022/01/26 12:18:59;;;;;;;33.57;14.80;;;4.70;99.90;;;;;;4903795;29;20486;-74
2022/01/26 12:33:11;;;;;;;37.40;15.67;;;4.70;99.90;;;;;;4899517;29;20473;-73
2022/01/26 12:35:49;;;;;;;31.57;16.93;;;4.60;99.90;;;;;;4897125;29;20503;-73
2022/01/26 12:38:50;;;;;;;40.57;16.90;;;4.80;99.90;;;;;;4895875;29;20476;-72
2022/01/26 12:43:53;;;;;;;36.20;17.27;;;4.70;99.90;;;;;;4900146;29;20841;-72
2022/01/26 12:46:30;;;;;;;34.17;16.47;;;4.70;99.90;;;;;;4901149;29;20185;-72
2022/01/26 12:48:59;;;;;;;38.60;16.10;;;4.60;99.90;;;;;;4900272;29;20478;-73
2022/01/26 12:51:27;;;;;;;35.90;15.10;;;4.60;99.90;;;;;;4895306;29;20468;-73
2022/01/26 12:54:02;;;;;;;40.67;16.63;;;4.70;99.90;;;;;;4900979;29;20557;-74
2022/01/26 12:56:30;;;;;;;36.07;16.50;;;4.70;99.90;;;;;;4907172;29;20453;-73
2022/01/26 12:59:12;;;;;;;45.37;17.83;;;4.80;99.90;;;;;;4911413;29;21536;-73
2022/01/26 13:01:40;;;;;;;36.40;15.73;;;4.70;99.90;;;;;;4896464;29;20469;-74
2022/01/26 13:04:08;;;;;;;38.77;16.00;;;4.70;99.90;;;;;;4898227;29;20449;-74
2022/01/26 13:06:46;;;;;;;40.27;17.53;;;4.70;99.90;;;;;;4900394;29;20475;-74
2022/01/26 13:09:27;;;;;;;37.07;15.80;;;4.60;99.90;;;;;;4900191;29;20509;-73
2022/01/26 13:11:57;;;;;;;47.07;17.93;;;4.70;99.90;;;;;;4905008;29;20548;-73
2022/01/26 13:17:53;;;;;;;37.30;16.10;;;4.60;99.90;;;;;;4899922;29;20449;-73
2022/01/26 13:23:05;;;;;;;38.23;16.77;;;4.70;99.90;;;;;;4881993;29;20659;-73
2022/01/26 13:28:25;;;;;;;36.60;16.60;;;4.70;99.90;;;;;;4902501;29;20492;-74
2022/01/26 13:37:04;;;;;;;36.17;17.30;;;4.70;99.90;;;;;;4898893;29;20571;-74
2022/01/26 13:47:37;;;;;;;34.80;17.60;;;4.70;99.90;;;;;;4902880;29;20452;-73
2022/01/26 13:50:17;;;;;;;45.30;18.90;;;4.70;99.90;;;;;;4902099;29;20453;-73
2022/01/26 13:52:51;;;;;;;39.50;18.37;;;4.70;99.90;;;;;;4903990;29;20455;-71
2022/01/26 13:55:43;;;;;;;35.27;16.50;;;4.80;99.90;;;;;;4901616;29;20448;-73
2022/01/26 13:58:29;;;;;;;34.13;16.27;;;4.80;99.90;;;;;;4906092;29;20512;-70
2022/01/26 14:01:02;;;;;;;36.20;16.73;;;4.90;99.90;;;;;;4902235;29;20493;-70
2022/01/26 14:03:30;;;;;;;36.40;16.40;;;4.90;99.90;;;;;;4903270;29;20449;-73
2022/01/26 14:05:56;;;;;;;36.53;16.50;;;4.90;99.90;;;;;;4906801;29;20453;-73
2022/01/26 14:08:22;;;;;;;41.80;17.17;;;4.90;99.90;;;;;;4903633;29;20875;-74
2022/01/26 14:10:49;;;;;;;39.50;17.80;;;5.00;99.90;;;;;;4904241;29;20256;-72
2022/01/26 14:13:19;;;;;;;42.97;18.97;;;5.00;99.90;;;;;;4906843;29;20595;-72
2022/01/26 14:15:48;;;;;;;38.67;17.00;;;5.00;99.90;;;;;;4902617;29;20544;-72
2022/01/26 14:20:49;;;;;;;34.67;17.30;;;5.00;99.90;;;;;;4901017;29;20850;-73
2022/01/26 14:25:59;;;;;;;35.50;16.47;;;5.00;99.90;;;;;;4904921;29;20456;-72
2022/01/26 14:28:32;;;;;;;35.20;17.77;;;5.00;99.90;;;;;;4906369;29;20476;-73
2022/01/26 14:33:45;;;;;;;38.03;17.20;;;4.90;99.90;;;;;;4901065;29;20460;-73
2022/01/26 14:55:25;;;;;;;35.90;17.70;;;5.00;99.90;;;;;;4902192;29;20456;-72
2022/01/26 15:08:47;;;;;;;34.87;16.80;;;5.00;99.90;;;;;;4901363;29;20562;-75
2022/01/26 15:12:10;;;;;;;40.60;18.70;;;5.00;99.90;;;;;;4899947;29;20481;-74
2022/01/26 15:51:48;;;;;;;40.13;18.23;;;5.20;99.90;;;;;;4903376;29;20517;-75
2022/01/26 16:05:24;;;;;;;36.63;18.33;;;5.20;99.90;;;;;;4906319;29;20436;-73
2022/01/26 16:16:34;;;;;;;32.93;16.47;;;5.20;99.90;;;;;;4902613;29;20533;-73
2022/01/26 16:37:49;;;;;;;41.60;20.50;;;5.30;99.90;;;;;;4901630;29;20490;-75
2022/01/26 18:13:48;;;;;;;44.50;21.57;;;5.70;99.90;;;;;;4898763;29;21353;-73
2022/01/26 18:16:03;;;;;;;49.63;22.50;;;5.70;99.90;;;;;;4898417;29;20452;-73
2022/01/26 18:32:08;;;;;;;45.57;22.20;;;5.70;99.90;;;;;;4897687;29;20480;-73
2022/01/26 18:50:49;;;;;;;46.30;22.87;;;5.80;99.90;;;;;;4904726;29;20499;-74
2022/01/26 18:53:15;;;;;;;50.43;22.30;;;5.80;99.90;;;;;;4910097;29;20989;-74
2022/01/26 18:55:41;;;;;;;55.47;22.87;;;5.80;99.90;;;;;;4903303;29;20189;-74
2022/01/26 18:58:07;;;;;;;53.73;23.77;;;5.80;99.90;;;;;;4904930;29;20673;-73
2022/01/26 19:00:32;;;;;;;51.83;21.50;;;5.80;99.90;;;;;;4899241;29;20464;-73
2022/01/26 19:02:59;;;;;;;51.00;22.77;;;5.80;99.90;;;;;;4902914;29;20321;-74
2022/01/26 19:05:26;;;;;;;55.83;22.77;;;5.70;99.90;;;;;;4904667;29;20188;-74
2022/01/26 19:07:53;;;;;;;51.27;21.03;;;5.80;99.90;;;;;;4903927;29;20485;-74
2022/01/26 19:10:20;;;;;;;60.73;25.10;;;5.80;99.90;;;;;;4902754;29;21028;-74
2022/01/26 19:12:46;;;;;;;47.10;20.57;;;5.80;99.90;;;;;;4903302;29;20460;-74
2022/01/26 19:15:15;;;;;;;49.90;23.10;;;5.80;99.90;;;;;;4908300;29;20617;-74
2022/01/26 19:17:50;;;;;;;51.63;20.43;;;5.80;99.90;;;;;;4903670;29;20483;-74
2022/01/26 19:23:04;;;;;;;49.40;21.53;;;5.90;99.90;;;;;;4901252;29;20512;-74
2022/01/26 19:25:41;;;;;;;39.63;19.40;;;5.90;99.90;;;;;;4903210;29;20540;-73
2022/01/26 19:28:14;;;;;;;44.90;19.27;;;5.90;99.90;;;;;;4900996;29;20476;-74
2022/01/26 19:44:16;;;;;;;48.20;22.23;;;5.90;99.90;;;;;;4901284;29;20491;-72
2022/01/26 19:47:13;;;;;;;46.93;21.00;;;5.90;99.90;;;;;;4903466;29;21079;-73
2022/01/26 19:52:20;;;;;;;46.80;20.40;;;5.90;99.90;;;;;;4898847;29;20485;-72